Time;durP1;ratioP1;P1;durP2;ratioP2;P2;SDS_P1;SDS_P2;PMS_P1;PMS_P2;Temp;Humidity;BMP_temperature;BMP_pressure;BME280_temperature;BME280_humidity;BME280_pressure;Samples;Min_cycle;Max_cycle;Signal;HPM_P1;HPM_P2
2021/12/02 00:00:58;;;;;;;152.80;62.03;;;;;;;1.61;87.79;94488.66;5051801;28;20221;-84
2021/12/02 00:03:24;;;;;;;133.33;62.23;;;;;;;1.14;87.21;94397.84;5052029;28;20277;-84
2021/12/02 00:05:50;;;;;;;128.50;55.60;;;;;;;1.22;87.30;94428.09;5053043;28;20235;-84
2021/12/02 00:08:16;;;;;;;123.47;52.03;;;;;;;1.26;87.69;94422.44;5034784;28;20186;-84
2021/12/02 00:10:42;;;;;;;119.27;53.63;;;;;;;1.58;87.81;94494.16;5052604;28;20636;-83
2021/12/02 00:13:08;;;;;;;121.90;52.37;;;;;;;0.96;87.09;94387.66;5034759;28;20175;-83
2021/12/02 00:15:43;;;;;;;110.17;51.93;;;;;;;1.44;86.73;94476.69;5034565;28;20224;-84
2021/12/02 00:23:28;;;;;;;103.93;50.63;;;;;;;1.55;86.57;94497.09;5052638;28;20270;-83
2021/12/02 00:25:57;;;;;;;137.00;56.80;;;;;;;1.32;86.84;94465.03;5034307;28;20175;-83
2021/12/02 00:28:25;;;;;;;110.20;48.63;;;;;;;0.68;86.93;94363.09;5032752;28;20221;-83
2021/12/02 00:30:53;;;;;;;113.00;47.50;;;;;;;1.51;86.40;94480.25;5033307;28;20181;-83
2021/12/02 00:33:19;;;;;;;121.97;50.57;;;;;;;1.20;86.38;94450.81;5050876;28;20171;-83
2021/12/02 00:35:46;;;;;;;114.87;49.63;;;;;;;1.26;86.11;94471.69;5051996;28;20230;-83
2021/12/02 00:38:13;;;;;;;114.70;50.13;;;;;;;1.04;86.17;94438.66;5052273;28;20542;-83
2021/12/02 00:40:40;;;;;;;107.40;47.70;;;;;;;1.03;86.59;94442.25;5052388;28;20163;-83
2021/12/02 00:43:05;;;;;;;115.33;48.20;;;;;;;1.15;87.02;94440.91;5051980;28;20176;-83
2021/12/02 00:45:31;;;;;;;112.93;47.13;;;;;;;1.01;86.56;94416.50;5052166;28;20605;-83
2021/12/02 00:47:59;;;;;;;100.37;43.97;;;;;;;1.20;86.78;94453.41;5034120;28;20257;-83
2021/12/02 00:50:25;;;;;;;100.43;44.33;;;;;;;1.04;87.32;94428.28;5052263;28;20163;-83
2021/12/02 00:52:51;;;;;;;99.33;42.83;;;;;;;1.06;87.75;94432.34;5033291;28;20159;-83
2021/12/02 00:55:18;;;;;;;92.90;42.17;;;;;;;1.40;87.28;94490.94;5051206;28;20167;-83
2021/12/02 00:57:45;;;;;;;104.67;44.57;;;;;;;0.97;87.92;94432.50;5050664;28;20159;-83
2021/12/02 01:00:11;;;;;;;101.67;45.07;;;;;;;1.01;87.77;94450.19;5051339;28;20259;-83
2021/12/02 01:02:37;;;;;;;105.87;44.50;;;;;;;0.98;87.89;94445.31;5050954;28;20245;-83
2021/12/02 01:05:03;;;;;;;114.20;44.63;;;;;;;1.32;87.73;94496.16;5050996;28;20167;-84
2021/12/02 01:07:29;;;;;;;102.63;42.40;;;;;;;1.08;87.32;94458.91;5050946;28;20240;-83
2021/12/02 01:09:54;;;;;;;106.67;42.20;;;;;;;1.05;87.12;94450.63;5033934;28;20179;-83
2021/12/02 01:12:20;;;;;;;102.40;40.40;;;;;;;0.91;86.72;94433.97;5051312;28;20181;-83
2021/12/02 01:14:46;;;;;;;91.53;40.10;;;;;;;1.07;87.39;94459.06;5050652;28;20182;-83
2021/12/02 01:17:12;;;;;;;81.07;35.50;;;;;;;1.28;87.80;94497.47;5050275;28;20187;-83
2021/12/02 01:19:38;;;;;;;73.77;34.43;;;;;;;1.03;87.76;94452.59;5032564;28;20573;-83
2021/12/02 01:22:03;;;;;;;81.90;34.07;;;;;;;1.39;88.89;94489.31;5051848;28;20236;-83
2021/12/02 01:24:30;;;;;;;75.63;32.90;;;;;;;1.24;89.14;94460.69;5033566;28;20175;-84
2021/12/02 01:26:57;;;;;;;75.67;34.67;;;;;;;1.39;88.64;94497.09;5050652;28;20185;-83
2021/12/02 01:29:24;;;;;;;76.23;33.47;;;;;;;1.24;88.97;94483.19;5032062;28;20727;-83
2021/12/02 01:31:55;;;;;;;82.70;35.87;;;;;;;1.41;87.70;94513.31;5050659;28;20664;-83
2021/12/02 01:34:24;;;;;;;76.13;34.80;;;;;;;1.14;88.20;94460.03;5050511;28;20167;-84
2021/12/02 01:36:52;;;;;;;77.07;31.60;;;;;;;1.54;88.49;94513.63;5051516;28;20171;-84
2021/12/02 01:39:18;;;;;;;74.07;32.33;;;;;;;1.08;87.82;94439.97;5051872;28;20151;-83
2021/12/02 01:41:48;;;;;;;75.07;32.33;;;;;;;1.44;87.88;94505.22;5033597;28;20167;-84
2021/12/02 01:44:16;;;;;;;74.63;30.93;;;;;;;1.33;88.15;94466.66;5051441;28;20254;-83
2021/12/02 01:46:42;;;;;;;80.10;33.93;;;;;;;1.40;88.25;94478.81;5033580;28;20178;-84
2021/12/02 01:49:10;;;;;;;75.90;33.57;;;;;;;1.19;87.06;94465.56;5034146;28;20586;-83
2021/12/02 01:51:40;;;;;;;90.83;35.53;;;;;;;1.21;87.62;94494.69;5033616;28;20163;-83
2021/12/02 01:54:11;;;;;;;80.20;34.33;;;;;;;1.15;87.65;94472.03;5033561;28;20202;-83
2021/12/02 01:56:52;;;;;;;79.07;36.67;;;;;;;1.33;87.91;94490.00;5032743;28;20258;-83
2021/12/02 01:59:22;;;;;;;71.80;32.80;;;;;;;1.34;88.37;94474.28;5031998;28;20174;-82
2021/12/02 02:01:51;;;;;;;65.13;30.43;;;;;;;1.35;88.51;94470.72;5032271;28;20195;-82
2021/12/02 02:04:17;;;;;;;62.37;28.87;;;;;;;1.41;87.95;94454.50;5033202;28;20718;-83
2021/12/02 02:07:04;;;;;;;67.73;30.70;;;;;;;1.38;87.55;94454.84;5055000;28;20246;-83
2021/12/02 02:09:32;;;;;;;60.63;27.30;;;;;;;1.29;87.67;94449.84;5037298;28;20190;-83
2021/12/02 02:12:00;;;;;;;45.07;23.67;;;;;;;1.13;88.96;94424.72;5036786;28;20695;-83
2021/12/02 02:14:28;;;;;;;69.07;27.90;;;;;;;0.94;88.55;94387.03;5054516;28;20729;-83
2021/12/02 02:16:54;;;;;;;58.03;25.77;;;;;;;1.16;87.96;94432.19;5054839;28;20159;-83
2021/12/02 02:19:21;;;;;;;64.93;29.27;;;;;;;1.38;87.75;94451.44;5036905;28;20609;-83
2021/12/02 02:21:46;;;;;;;46.27;19.20;;;;;;;0.41;87.52;94281.41;5054591;28;20174;-83
2021/12/02 02:24:14;;;;;;;54.93;25.60;;;;;;;1.13;87.48;94406.56;5053722;28;20672;-83
2021/12/02 02:26:42;;;;;;;54.27;23.70;;;;;;;1.44;88.50;94450.78;5053541;28;20242;-83
2021/12/02 02:29:10;;;;;;;46.40;22.37;;;;;;;1.27;88.54;94442.22;5035189;28;20230;-83
2021/12/02 02:31:39;;;;;;;35.70;19.37;;;;;;;1.50;89.05;94468.25;5052055;28;20285;-82
2021/12/02 02:34:05;;;;;;;45.47;22.70;;;;;;;1.34;89.31;94427.63;5036368;28;20256;-83
2021/12/02 02:36:33;;;;;;;41.80;19.53;;;;;;;1.57;89.23;94455.44;5054739;28;20206;-81
2021/12/02 02:39:02;;;;;;;41.73;20.00;;;;;;;1.65;89.76;94470.97;5052185;28;20541;-81
2021/12/02 02:41:33;;;;;;;41.17;19.97;;;;;;;1.71;89.10;94468.53;5052972;28;20214;-81
2021/12/02 02:44:00;;;;;;;35.10;18.83;;;;;;;1.84;88.45;94468.81;5035330;28;20313;-81
2021/12/02 02:46:32;;;;;;;43.10;20.60;;;;;;;1.69;88.10;94439.34;5035597;28;20171;-81
2021/12/02 02:49:00;;;;;;;42.27;20.33;;;;;;;1.74;88.15;94465.59;5054218;28;20189;-81
2021/12/02 02:51:29;;;;;;;47.27;19.93;;;;;;;1.63;88.89;94473.75;5053876;28;20179;-81
2021/12/02 02:53:57;;;;;;;41.67;19.47;;;;;;;1.53;89.39;94457.56;5054151;28;20167;-81
2021/12/02 02:56:27;;;;;;;39.10;19.30;;;;;;;1.62;88.91;94463.53;5036638;28;20917;-81
2021/12/02 03:05:14;;;;;;;38.00;18.43;;;;;;;1.53;88.29;94444.59;5023298;28;20194;-81
2021/12/02 03:08:11;;;;;;;44.80;19.77;;;;;;;1.52;88.45;94441.19;5038555;28;20217;-81
2021/12/02 03:18:16;;;;;;;54.37;23.83;;;;;;;1.46;88.21;94423.72;5052346;28;20707;-82
2021/12/02 03:20:41;;;;;;;58.73;24.93;;;;;;;1.21;87.66;94419.53;5052510;28;20171;-82
2021/12/02 03:23:07;;;;;;;41.83;20.83;;;;;;;1.40;88.34;94426.94;5052483;28;20764;-82
2021/12/02 03:25:33;;;;;;;49.87;23.60;;;;;;;0.85;88.71;94385.41;5034925;28;20175;-82
2021/12/02 03:27:58;;;;;;;53.20;25.00;;;;;;;0.96;89.15;94443.84;5049207;28;20218;-82
2021/12/02 03:30:24;;;;;;;70.83;30.13;;;;;;;0.43;90.24;94354.53;5041176;28;20229;-83
2021/12/02 03:32:49;;;;;;;60.67;27.73;;;;;;;1.00;90.05;94438.19;5039732;28;20645;-83
2021/12/02 03:35:15;;;;;;;76.00;34.23;;;;;;;1.10;89.52;94448.38;5015718;28;20560;-83
2021/12/02 03:37:40;;;;;;;57.07;27.27;;;;;;;0.88;89.04;94395.44;5015766;28;20186;-83
2021/12/02 03:40:06;;;;;;;46.30;22.47;;;;;;;1.22;88.66;94438.47;5033380;28;20217;-83
2021/12/02 03:42:32;;;;;;;74.63;32.23;;;;;;;1.01;89.79;94388.00;5033460;28;20192;-83
2021/12/02 03:44:58;;;;;;;67.70;29.60;;;;;;;1.19;88.43;94400.75;5033387;28;20172;-83
2021/12/02 03:47:23;;;;;;;71.77;28.53;;;;;;;1.43;87.65;94444.78;5015573;28;20210;-83
2021/12/02 03:49:49;;;;;;;54.87;25.90;;;;;;;1.24;87.93;94416.59;5033199;28;20168;-83
2021/12/02 03:52:14;;;;;;;69.13;31.30;;;;;;;1.45;88.00;94436.84;5033127;28;20148;-83
2021/12/02 03:54:40;;;;;;;63.97;27.97;;;;;;;1.43;87.85;94443.97;5033276;28;20160;-83
2021/12/02 03:57:05;;;;;;;70.50;30.20;;;;;;;0.83;87.70;94358.88;5032930;28;20646;-83
2021/12/02 03:59:32;;;;;;;70.23;31.27;;;;;;;1.02;87.41;94381.03;5033042;28;20152;-83
2021/12/02 04:01:57;;;;;;;71.03;29.73;;;;;;;1.09;87.03;94380.19;5032978;28;20180;-83
2021/12/02 04:04:23;;;;;;;65.40;32.97;;;;;;;1.13;87.13;94406.56;5032886;28;20183;-87
2021/12/02 04:06:49;;;;;;;93.40;43.90;;;;;;;1.35;87.38;94449.16;5033781;28;20160;-86
2021/12/02 04:09:22;;;;;;;129.63;57.83;;;;;;;0.86;87.07;94348.19;5033522;28;20206;-86
2021/12/02 04:11:57;;;;;;;173.50;75.97;;;;;;;1.00;86.46;94378.59;5035308;28;20185;-86
2021/12/02 04:16:57;;;;;;;152.53;67.23;;;;;;;1.07;87.31;94386.50;5043371;28;20172;-86
2021/12/02 04:19:23;;;;;;;140.57;65.07;;;;;;;0.86;87.92;94357.75;5024675;28;20172;-85
2021/12/02 04:21:49;;;;;;;135.50;66.70;;;;;;;0.78;87.28;94353.34;5034268;28;20189;-85
2021/12/02 04:24:15;;;;;;;131.47;57.87;;;;;;;0.83;87.30;94366.63;5035160;28;20538;-85
2021/12/02 04:26:43;;;;;;;170.43;68.43;;;;;;;1.16;86.71;94437.34;5052814;28;20171;-85
2021/12/02 04:29:09;;;;;;;143.43;54.30;;;;;;;1.03;87.56;94442.25;5052440;28;20223;-85
2021/12/02 04:31:34;;;;;;;94.63;39.77;;;;;;;0.65;87.81;94378.94;5025047;28;20175;-85
2021/12/02 04:34:00;;;;;;;139.27;55.00;;;;;;;0.43;87.71;94335.59;5033549;28;20179;-86
2021/12/02 04:36:25;;;;;;;141.93;58.97;;;;;;;0.61;87.32;94355.16;5017440;28;20175;-84
2021/12/02 04:38:51;;;;;;;103.63;45.83;;;;;;;0.30;87.43;94294.66;5039928;28;21991;-84
2021/12/02 04:41:17;;;;;;;110.47;48.00;;;;;;;0.46;87.81;94305.00;5035646;28;20633;-84
2021/12/02 04:43:43;;;;;;;107.90;49.20;;;;;;;0.68;87.87;94365.69;5031061;28;20198;-84
2021/12/02 04:46:09;;;;;;;99.60;43.70;;;;;;;0.80;87.58;94369.53;5052048;28;20171;-84
2021/12/02 04:48:34;;;;;;;95.83;45.30;;;;;;;0.72;88.13;94366.97;5034172;28;20242;-84
2021/12/02 04:50:59;;;;;;;99.97;45.73;;;;;;;0.72;87.36;94364.38;5027467;28;20172;-84
2021/12/02 04:53:25;;;;;;;95.13;44.67;;;;;;;0.47;87.49;94352.41;5037080;28;20238;-89
2021/12/02 04:55:51;;;;;;;86.13;42.87;;;;;;;0.45;87.96;94334.44;5044355;28;20179;-89
2021/12/02 04:58:18;;;;;;;105.13;44.10;;;;;;;0.82;88.13;94405.66;5022340;28;20175;-89
2021/12/02 05:00:43;;;;;;;90.73;42.73;;;;;;;0.44;87.64;94332.00;5033646;28;20241;-87
2021/12/02 05:03:09;;;;;;;102.50;45.77;;;;;;;0.36;87.26;94304.34;5018962;28;20200;-87
2021/12/02 05:05:34;;;;;;;114.07;52.40;;;;;;;0.52;87.34;94332.81;5021096;28;20171;-87
2021/12/02 05:08:03;;;;;;;120.27;53.07;;;;;;;0.46;87.53;94324.91;5038872;28;20186;-86
2021/12/02 05:10:28;;;;;;;141.00;61.47;;;;;;;0.66;87.44;94359.84;5020991;28;20167;-87
2021/12/02 05:12:53;;;;;;;146.77;61.30;;;;;;;0.28;87.61;94292.22;5035343;28;20182;-87
2021/12/02 05:15:19;;;;;;;185.97;85.17;;;;;;;0.33;88.02;94302.13;5020891;28;20178;-86
2021/12/02 05:17:44;;;;;;;181.93;84.07;;;;;;;0.42;87.70;94313.28;5019192;28;20245;-87
2021/12/02 05:20:10;;;;;;;195.23;88.37;;;;;;;0.69;88.32;94395.78;5020887;28;20629;-86
2021/12/02 05:22:36;;;;;;;171.60;83.27;;;;;;;0.66;88.69;94383.16;5042675;28;20203;-87
2021/12/02 05:25:02;;;;;;;158.83;76.73;;;;;;;0.17;88.71;94318.44;5023425;28;20173;-87
2021/12/02 05:27:28;;;;;;;149.40;71.43;;;;;;;0.21;89.21;94306.78;5044027;28;20178;-86
2021/12/02 05:29:54;;;;;;;155.13;71.40;;;;;;;0.22;88.42;94303.25;5020373;28;20259;-86
2021/12/02 05:32:19;;;;;;;144.43;64.63;;;;;;;0.21;88.77;94288.69;5022085;28;20168;-87
2021/12/02 05:34:49;;;;;;;131.33;64.00;;;;;;;0.42;88.67;94308.09;5041748;28;20572;-86
2021/12/02 05:37:16;;;;;;;127.07;61.37;;;;;;;0.59;88.05;94353.72;5038383;28;20176;-86
2021/12/02 05:39:43;;;;;;;133.70;63.13;;;;;;;0.44;88.94;94387.19;5040575;28;20639;-85
2021/12/02 05:42:08;;;;;;;133.43;63.83;;;;;;;0.54;89.96;94387.03;5038539;28;20195;-89
2021/12/02 05:44:34;;;;;;;121.77;56.80;;;;;;;0.27;89.49;94337.19;5021611;28;20193;-84
2021/12/02 05:46:59;;;;;;;127.97;57.50;;;;;;;0.49;90.12;94353.06;5027679;28;21882;-82
2021/12/02 05:49:25;;;;;;;113.20;53.33;;;;;;;0.42;89.36;94346.91;5041821;28;20187;-84
2021/12/02 05:51:50;;;;;;;126.83;59.50;;;;;;;0.34;89.60;94348.53;5025528;28;20711;-84
2021/12/02 05:54:16;;;;;;;137.77;64.43;;;;;;;-0.05;89.03;94269.91;5043848;28;20171;-85
2021/12/02 05:56:41;;;;;;;146.37;66.93;;;;;;;0.44;88.49;94342.38;5040545;28;20167;-86
2021/12/02 05:59:07;;;;;;;158.47;66.27;;;;;;;0.26;88.29;94308.91;5028392;28;20210;-85
2021/12/02 06:01:33;;;;;;;168.63;75.53;;;;;;;0.92;87.70;94403.72;5040755;28;20642;-85
2021/12/02 06:03:58;;;;;;;221.33;102.67;;;;;;;0.60;87.31;94347.56;5039031;28;20203;-84
2021/12/02 06:06:26;;;;;;;221.17;98.83;;;;;;;0.59;87.23;94343.34;5044849;28;20180;-87
2021/12/02 06:08:52;;;;;;;232.33;102.40;;;;;;;0.53;87.20;94321.50;5046524;28;20180;-85
2021/12/02 06:11:17;;;;;;;213.67;97.00;;;;;;;0.98;87.37;94390.09;5041819;28;20309;-83
2021/12/02 06:13:46;;;;;;;191.93;86.57;;;;;;;0.63;86.66;94331.69;5020695;28;20175;-84
2021/12/02 06:16:15;;;;;;;178.23;85.53;;;;;;;0.92;86.74;94360.47;5026687;28;20237;-87
2021/12/02 06:18:40;;;;;;;184.07;83.80;;;;;;;0.87;87.16;94343.78;5041573;28;20171;-86
2021/12/02 06:21:06;;;;;;;188.90;82.97;;;;;;;0.82;86.80;94328.75;5026239;28;20253;-86
2021/12/02 06:23:32;;;;;;;148.43;73.63;;;;;;;0.83;87.08;94304.47;5023967;28;20227;-87
2021/12/02 06:25:57;;;;;;;170.43;75.93;;;;;;;1.54;87.25;94352.84;5021885;28;20261;-85
2021/12/02 06:28:23;;;;;;;173.83;83.40;;;;;;;2.40;85.33;94411.63;5047574;28;20226;-86
2021/12/02 06:30:49;;;;;;;162.93;76.60;;;;;;;3.01;83.08;94416.69;5053176;28;20177;-84
2021/12/02 06:33:15;;;;;;;166.23;78.80;;;;;;;3.47;80.08;94356.75;5032263;28;20183;-87
2021/12/02 06:35:41;;;;;;;170.07;79.30;;;;;;;4.13;75.44;94350.56;5035373;28;20262;-85
2021/12/02 06:38:07;;;;;;;140.40;70.00;;;;;;;5.14;73.36;94416.47;5052465;28;20210;-85
2021/12/02 06:40:34;;;;;;;155.20;75.27;;;;;;;4.90;72.08;94342.88;5052149;28;20675;-84
2021/12/02 06:43:01;;;;;;;188.10;88.60;;;;;;;5.06;70.83;94338.38;5034791;28;20264;-85
2021/12/02 06:45:27;;;;;;;207.20;97.97;;;;;;;5.39;70.31;94372.50;5035155;28;20181;-86
2021/12/02 06:47:56;;;;;;;200.63;93.90;;;;;;;5.75;69.02;94385.38;5051591;28;20167;-88
2021/12/02 06:50:22;;;;;;;175.33;84.63;;;;;;;6.23;68.97;94355.66;5034592;28;20175;-85
2021/12/02 06:52:50;;;;;;;179.97;82.20;;;;;;;7.97;65.35;94426.00;5052240;28;20181;-84
2021/12/02 06:55:16;;;;;;;150.70;77.53;;;;;;;8.38;61.12;94329.72;5051492;28;20630;-86
2021/12/02 06:57:42;;;;;;;151.50;76.80;;;;;;;9.15;58.92;94423.91;5034696;28;20193;-84
2021/12/02 07:00:11;;;;;;;149.20;79.37;;;;;;;8.96;59.57;94423.00;5033519;28;20171;-85
2021/12/02 07:02:37;;;;;;;378.30;216.37;;;;;;;8.05;60.65;94382.22;5054785;28;20233;-84
2021/12/02 07:05:05;;;;;;;333.10;196.27;;;;;;;7.00;62.12;94355.22;5053805;28;20210;-84
2021/12/02 07:07:34;;;;;;;457.27;343.80;;;;;;;6.50;64.18;94359.16;5034565;28;20611;-83
2021/12/02 07:09:59;;;;;;;381.50;347.53;;;;;;;6.36;66.12;94407.19;5034692;28;20171;-86
2021/12/02 07:12:32;;;;;;;147.73;77.93;;;;;;;6.13;68.16;94376.16;5034481;28;20174;-86
2021/12/02 07:14:59;;;;;;;130.60;70.40;;;;;;;6.27;67.98;94359.50;5034327;28;20202;-86
2021/12/02 07:17:25;;;;;;;140.27;69.17;;;;;;;6.64;67.24;94362.63;5033414;28;20561;-84
2021/12/02 07:19:50;;;;;;;181.30;88.07;;;;;;;7.51;65.33;94412.19;5051506;28;20178;-84
2021/12/02 07:22:16;;;;;;;701.40;359.17;;;;;;;7.80;64.09;94409.09;5050976;28;20203;-83
2021/12/02 07:24:41;;;;;;;1999.90;999.90;;;;;;;8.17;63.68;94364.84;5052134;28;20550;-87
2021/12/02 07:27:07;;;;;;;291.67;144.10;;;;;;;10.52;58.51;94367.59;5034330;28;20213;-85
2021/12/02 07:29:33;;;;;;;237.97;215.63;;;;;;;12.78;50.72;94301.75;5039535;28;20219;-85
2021/12/02 07:32:02;;;;;;;162.03;141.07;;;;;;;14.42;45.14;94346.25;5022827;28;20176;-84
2021/12/02 07:34:33;;;;;;;96.77;51.90;;;;;;;16.34;42.36;94352.41;5042534;28;20649;-84
2021/12/02 07:36:59;;;;;;;83.70;45.23;;;;;;;17.39;39.68;94336.19;5039358;28;20609;-85
2021/12/02 07:39:25;;;;;;;78.17;42.33;;;;;;;18.37;37.38;94340.09;5022382;28;20577;-86
2021/12/02 07:41:51;;;;;;;83.30;45.90;;;;;;;19.32;35.73;94368.47;5040851;28;20182;-84
2021/12/02 07:44:17;;;;;;;80.20;42.10;;;;;;;19.81;33.55;94392.44;5040501;28;20180;-83
2021/12/02 07:46:43;;;;;;;63.03;35.75;;;;;;;20.01;32.59;94397.63;5032976;28;20563;-83
2021/12/02 07:49:12;;;;;;;61.35;35.35;;;;;;;20.17;32.14;94368.88;5040941;28;20274;-85
2021/12/02 07:51:38;;;;;;;63.10;34.75;;;;;;;20.55;30.60;94354.63;5037748;28;20307;-88
2021/12/02 07:54:03;;;;;;;51.92;30.42;;;;;;;20.03;31.03;94317.19;5023864;28;20168;-85
2021/12/02 07:56:32;;;;;;;51.20;29.17;;;;;;;20.06;31.18;94338.81;5044718;28;20175;-86
2021/12/02 07:58:59;;;;;;;44.20;26.42;;;;;;;19.85;31.12;94327.50;5047881;28;20167;-86
2021/12/02 08:01:27;;;;;;;39.40;23.58;;;;;;;18.51;32.32;94318.22;5040913;28;20183;-86
2021/12/02 08:03:52;;;;;;;38.90;23.70;;;;;;;16.66;35.28;94314.28;5019734;28;20623;-85
2021/12/02 08:06:18;;;;;;;36.47;20.37;;;;;;;15.24;38.68;94340.75;5044292;28;20175;-86
2021/12/02 08:08:45;;;;;;;37.77;19.80;;;;;;;14.67;39.67;94351.03;5029247;28;20179;-88
2021/12/02 08:11:12;;;;;;;33.60;18.10;;;;;;;14.52;41.34;94399.38;5038411;28;20679;-85
2021/12/02 08:13:38;;;;;;;23.33;13.47;;;;;;;14.24;41.55;94399.47;5035775;28;20654;-84
2021/12/02 08:16:05;;;;;;;26.80;16.10;;;;;;;14.05;41.65;94385.72;5020000;28;20184;-89
2021/12/02 08:18:32;;;;;;;16.50;10.00;;;;;;;13.45;41.28;94338.81;5020952;28;20179;-84
2021/12/02 08:20:58;;;;;;;19.47;9.37;;;;;;;13.41;42.20;94356.19;5044247;28;20202;-88
2021/12/02 08:23:24;;;;;;;16.50;7.50;;;;;;;12.90;41.62;94322.00;5041594;28;20557;-89
2021/12/02 08:25:49;;;;;;;20.83;9.23;;;;;;;12.98;42.71;94348.81;5040100;28;20225;-91
2021/12/02 08:28:15;;;;;;;11.70;6.33;;;;;;;13.00;42.69;94365.25;5023764;28;20587;-90
2021/12/02 08:30:41;;;;;;;15.03;6.80;;;;;;;12.75;42.87;94325.97;5026604;28;20179;-87
2021/12/02 08:33:10;;;;;;;10.00;5.77;;;;;;;12.77;41.94;94342.41;5047525;28;20254;-91
2021/12/02 08:35:36;;;;;;;13.80;7.57;;;;;;;13.10;43.43;94383.94;5029888;28;20159;-89
2021/12/02 08:38:09;;;;;;;18.53;9.87;;;;;;;13.02;42.40;94383.50;5028339;28;20180;-89
2021/12/02 08:40:37;;;;;;;18.73;10.40;;;;;;;12.47;43.37;94384.06;5034522;28;20213;-87
2021/12/02 08:43:11;;;;;;;16.30;9.67;;;;;;;12.29;44.00;94374.47;5049488;28;20207;-85
2021/12/02 08:45:38;;;;;;;19.17;9.70;;;;;;;11.81;45.04;94324.66;5047263;28;20195;-85
2021/12/02 08:48:06;;;;;;;22.33;9.50;;;;;;;11.86;45.01;94321.31;5043972;28;20198;-89
2021/12/02 08:50:33;;;;;;;20.07;9.57;;;;;;;12.17;45.08;94375.53;5033795;28;20179;-88
2021/12/02 08:52:59;;;;;;;17.50;10.37;;;;;;;11.85;45.41;94320.50;5050809;28;20199;-87
2021/12/02 08:55:26;;;;;;;21.47;9.90;;;;;;;12.34;45.23;94366.66;5033967;28;20182;-85
2021/12/02 08:57:53;;;;;;;18.90;11.27;;;;;;;11.95;44.93;94304.91;5049915;28;20267;-84
2021/12/02 09:00:21;;;;;;;22.20;10.47;;;;;;;12.06;45.51;94311.19;5031544;28;20199;-85
2021/12/02 09:02:47;;;;;;;22.07;11.83;;;;;;;12.41;43.97;94364.69;5050051;28;20195;-85
2021/12/02 09:05:13;;;;;;;19.90;11.80;;;;;;;12.20;44.79;94348.66;5032052;28;20277;-86
2021/12/02 09:07:39;;;;;;;25.13;13.13;;;;;;;12.00;45.63;94330.59;5050606;28;20197;-85
2021/12/02 09:10:06;;;;;;;27.03;14.50;;;;;;;11.90;46.25;94348.84;5033426;28;20183;-88
2021/12/02 09:12:33;;;;;;;26.80;13.53;;;;;;;11.41;46.12;94342.97;5031223;28;20564;-86
2021/12/02 09:14:59;;;;;;;24.30;13.40;;;;;;;11.09;47.41;94323.22;5052348;28;20177;-88
2021/12/02 09:17:25;;;;;;;23.00;11.80;;;;;;;10.23;48.01;94176.34;5052415;28;20179;-86
2021/12/02 09:19:51;;;;;;;21.03;9.33;;;;;;;10.43;46.70;94242.63;5053285;28;20292;-85
2021/12/02 09:22:16;;;;;;;17.80;8.83;;;;;;;10.86;46.48;94324.78;5054690;28;20196;-84
2021/12/02 09:24:42;;;;;;;26.70;9.13;;;;;;;10.66;48.27;94291.88;5052695;28;20182;-87
2021/12/02 09:27:08;;;;;;;16.67;8.70;;;;;;;10.75;47.88;94316.84;5053438;28;20663;-86
2021/12/02 09:29:34;;;;;;;14.40;7.97;;;;;;;10.75;47.81;94314.22;5036694;28;20245;-85
2021/12/02 09:31:59;;;;;;;18.40;9.17;;;;;;;10.71;48.48;94290.19;5036126;28;20210;-86
2021/12/02 09:34:26;;;;;;;22.53;12.03;;;;;;;10.70;48.29;94277.25;5053871;28;20537;-85
2021/12/02 09:36:53;;;;;;;13.17;8.43;;;;;;;10.81;47.88;94322.00;5054086;28;20724;-87
2021/12/02 09:39:18;;;;;;;19.53;9.63;;;;;;;10.31;48.62;94239.94;5051823;28;20215;-89
2021/12/02 09:41:46;;;;;;;21.27;9.63;;;;;;;10.74;48.71;94308.16;5034713;28;20217;-90
2021/12/02 09:44:14;;;;;;;18.17;9.90;;;;;;;10.90;48.94;94327.75;5054388;28;20213;-81
2021/12/02 09:46:41;;;;;;;14.53;9.83;;;;;;;10.81;48.63;94306.22;5035410;28;20201;-81
2021/12/02 09:49:12;;;;;;;20.30;9.67;;;;;;;10.53;48.45;94271.81;5054589;28;20594;-88
2021/12/02 09:52:02;;;;;;;13.37;8.60;;;;;;;10.66;48.32;94291.88;5054307;28;20194;-88
2021/12/02 09:54:29;;;;;;;19.07;9.27;;;;;;;10.48;48.53;94284.84;5054075;28;20183;-89
2021/12/02 09:56:58;;;;;;;17.60;9.33;;;;;;;10.36;48.79;94284.00;5036871;28;20171;-90
2021/12/02 09:59:46;;;;;;;14.57;8.63;;;;;;;10.14;49.73;94267.88;5035175;28;20228;-87
2021/12/02 10:02:16;;;;;;;16.10;9.37;;;;;;;10.28;50.22;94274.63;5051285;28;20219;-90
2021/12/02 10:04:52;;;;;;;20.80;11.00;;;;;;;10.14;50.29;94289.72;5036251;28;20236;-89
2021/12/02 10:07:34;;;;;;;21.00;10.10;;;;;;;9.76;50.76;94239.25;5036449;28;20555;-86
2021/12/02 10:12:43;;;;;;;20.37;9.87;;;;;;;10.02;52.25;94273.09;5055570;28;20259;-92
2021/12/02 10:15:13;;;;;;;23.67;11.90;;;;;;;9.46;50.99;94184.81;5037047;28;20214;-91
2021/12/02 10:17:44;;;;;;;19.33;11.20;;;;;;;9.45;51.65;94192.91;5035219;28;20266;-89
2021/12/02 10:23:04;;;;;;;18.40;9.90;;;;;;;9.60;52.69;94263.50;5054530;28;20669;-91
2021/12/02 10:25:34;;;;;;;21.73;9.63;;;;;;;9.07;52.05;94190.50;5053979;28;20244;-91
2021/12/02 10:28:05;;;;;;;18.27;9.80;;;;;;;9.29;53.30;94262.59;5035798;28;20264;-86
2021/12/02 10:30:31;;;;;;;16.90;9.67;;;;;;;8.56;54.04;94170.56;5054059;28;20554;-87
2021/12/02 10:32:56;;;;;;;21.47;10.60;;;;;;;8.65;55.54;94199.97;5035943;28;20175;-89
2021/12/02 10:35:37;;;;;;;19.23;10.23;;;;;;;8.67;56.63;94197.94;5035584;28;20186;-88
2021/12/02 10:38:03;;;;;;;16.50;9.63;;;;;;;8.83;54.25;94218.38;5051654;28;21011;-85
2021/12/02 10:40:28;;;;;;;18.20;9.20;;;;;;;8.59;55.37;94196.41;5035345;28;20862;-91
2021/12/02 10:42:54;;;;;;;16.53;8.87;;;;;;;8.86;56.41;94238.16;5035565;28;20195;-89
2021/12/02 10:45:25;;;;;;;16.53;9.87;;;;;;;8.89;55.74;94232.47;5034239;28;20652;-87
2021/12/02 10:47:52;;;;;;;15.80;9.87;;;;;;;8.74;54.67;94209.16;5051788;28;22137;-87
2021/12/02 10:50:19;;;;;;;15.57;9.13;;;;;;;8.84;55.07;94221.81;5053152;28;20218;-86
2021/12/02 10:52:44;;;;;;;16.63;8.70;;;;;;;8.74;55.05;94195.25;5053243;28;20229;-86
2021/12/02 10:55:18;;;;;;;18.30;9.20;;;;;;;8.37;56.16;94134.84;5053097;28;20186;-86
2021/12/02 10:57:49;;;;;;;16.97;9.17;;;;;;;8.50;56.33;94160.97;5033976;28;20233;-87
2021/12/02 11:00:19;;;;;;;15.70;7.97;;;;;;;8.55;55.31;94169.00;5032209;28;20179;-86
2021/12/02 11:02:52;;;;;;;17.40;9.73;;;;;;;8.80;55.68;94218.03;5043333;28;20285;-88
2021/12/02 11:05:34;;;;;;;18.73;8.07;;;;;;;8.78;56.46;94194.63;5033548;28;20190;-87
2021/12/02 11:08:07;;;;;;;15.70;7.60;;;;;;;8.83;55.80;94192.13;5045676;28;20183;-88
2021/12/02 11:10:45;;;;;;;18.93;7.97;;;;;;;8.47;55.64;94135.19;5046977;28;20229;-89
2021/12/02 11:13:18;;;;;;;16.47;8.17;;;;;;;8.60;56.28;94145.53;5031147;28;20640;-84
2021/12/02 11:15:43;;;;;;;19.90;9.30;;;;;;;8.41;56.13;94093.25;5052157;28;20179;-90
2021/12/02 11:18:12;;;;;;;13.37;7.80;;;;;;;8.61;56.50;94131.41;5034864;28;20186;-90
2021/12/02 11:20:46;;;;;;;14.27;8.13;;;;;;;9.03;56.17;94170.94;5034824;28;20566;-89
2021/12/02 11:23:29;;;;;;;14.73;7.90;;;;;;;8.68;55.15;94113.78;5034327;28;20637;-87
2021/12/02 11:26:00;;;;;;;21.57;7.80;;;;;;;9.01;55.77;94173.00;5035011;28;20178;-88
2021/12/02 11:28:29;;;;;;;19.13;7.10;;;;;;;9.05;55.42;94169.72;5033764;28;20233;-91
2021/12/02 11:30:56;;;;;;;13.67;7.40;;;;;;;8.99;55.12;94169.81;5052123;28;20186;-91
2021/12/02 11:33:30;;;;;;;14.17;7.53;;;;;;;9.01;55.65;94173.78;5051684;28;20652;-88
2021/12/02 11:35:55;;;;;;;16.63;8.07;;;;;;;8.49;55.89;94091.16;5053221;28;20195;-91
2021/12/02 11:38:26;;;;;;;20.73;8.03;;;;;;;8.55;55.79;94095.56;5052089;28;20199;-91
2021/12/02 11:40:57;;;;;;;18.63;7.77;;;;;;;8.49;56.14;94077.25;5034953;28;20179;-88
2021/12/02 11:43:27;;;;;;;15.07;7.10;;;;;;;8.75;56.25;94102.41;5052923;28;20191;-91
2021/12/02 11:45:54;;;;;;;19.70;7.40;;;;;;;9.17;55.80;94145.38;5034370;28;20171;-90
2021/12/02 11:48:32;;;;;;;19.87;7.47;;;;;;;8.89;55.18;94096.81;5052557;28;20720;-89
2021/12/02 11:51:04;;;;;;;10.37;6.87;;;;;;;9.21;55.47;94151.78;5033807;28;20174;-90